Time;durP1;ratioP1;P1;durP2;ratioP2;P2;SDS_P1;SDS_P2;PMS_P1;PMS_P2;Temp;Humidity;BMP_temperature;BMP_pressure;BME280_temperature;BME280_humidity;BME280_pressure;Samples;Min_cycle;Max_cycle;Signal;HPM_P1;HPM_P2
2020/12/05 00:01:53;;;;;;;23.00;11.57;;;;;;;12.00;100.00;101701.47;5010264;28;20660;-75
2020/12/05 00:04:18;;;;;;;28.37;13.77;;;;;;;12.00;100.00;101712.00;5010552;28;20213;-74
2020/12/05 00:06:44;;;;;;;22.53;10.83;;;;;;;12.08;100.00;101708.94;5010304;28;20198;-75
2020/12/05 00:09:10;;;;;;;25.20;12.40;;;;;;;12.05;100.00;101714.41;5009474;28;20851;-77
2020/12/05 00:11:36;;;;;;;26.00;12.03;;;;;;;12.09;100.00;101711.50;5011296;28;20178;-75
2020/12/05 00:14:04;;;;;;;21.50;10.90;;;;;;;12.13;100.00;101706.91;5010005;28;20508;-73
2020/12/05 00:16:30;;;;;;;23.83;11.10;;;;;;;12.12;100.00;101702.56;5012822;28;20533;-75
2020/12/05 00:18:56;;;;;;;24.00;12.00;;;;;;;12.15;100.00;101705.88;5011866;28;20417;-72
2020/12/05 00:21:22;;;;;;;27.27;14.03;;;;;;;12.18;100.00;101707.50;5011760;28;20170;-72
2020/12/05 00:23:49;;;;;;;35.50;11.50;;;;;;;12.19;100.00;101702.13;5011349;28;20167;-71
2020/12/05 00:26:18;;;;;;;26.33;12.00;;;;;;;12.20;100.00;101714.38;5011608;28;20441;-75
2020/12/05 00:28:44;;;;;;;21.90;12.37;;;;;;;12.15;100.00;101720.81;5011327;28;20418;-71
2020/12/05 00:31:13;;;;;;;21.90;11.27;;;;;;;12.20;100.00;101717.00;5010896;28;20516;-73
2020/12/05 00:33:39;;;;;;;28.40;11.93;;;;;;;12.15;100.00;101715.56;5011076;28;20889;-76
2020/12/05 00:36:05;;;;;;;31.37;11.30;;;;;;;12.14;100.00;101716.50;5011818;28;20878;-74
2020/12/05 00:38:30;;;;;;;23.07;11.33;;;;;;;12.14;100.00;101713.88;5010164;28;20421;-76
2020/12/05 00:40:57;;;;;;;25.50;11.07;;;;;;;12.14;100.00;101714.72;5009643;28;20225;-70
2020/12/05 00:43:22;;;;;;;21.00;10.90;;;;;;;12.22;100.00;101717.75;5011433;28;20496;-76
2020/12/05 00:45:51;;;;;;;20.10;10.47;;;;;;;12.22;100.00;101711.63;5006893;28;20201;-74
2020/12/05 00:48:16;;;;;;;21.87;10.80;;;;;;;12.26;100.00;101712.31;5011676;28;20182;-76
2020/12/05 00:50:42;;;;;;;23.37;11.00;;;;;;;12.28;100.00;101713.06;5011021;28;20457;-75
2020/12/05 00:53:07;;;;;;;17.80;9.07;;;;;;;12.27;100.00;101711.38;5010421;28;20193;-72
2020/12/05 00:55:33;;;;;;;16.97;9.20;;;;;;;12.32;100.00;101718.09;5011881;28;20189;-74
2020/12/05 00:57:58;;;;;;;22.97;10.10;;;;;;;12.24;100.00;101709.75;5010223;28;20171;-75
2020/12/05 01:00:24;;;;;;;22.57;9.53;;;;;;;12.29;100.00;101715.59;5009253;28;20579;-72
2020/12/05 01:02:49;;;;;;;28.17;16.10;;;;;;;12.32;100.00;101718.09;5010750;28;20177;-76
2020/12/05 01:05:15;;;;;;;32.20;10.47;;;;;;;12.31;100.00;101716.34;5010433;28;20253;-75
2020/12/05 01:07:41;;;;;;;18.80;9.77;;;;;;;12.29;100.00;101712.97;5010897;28;20201;-74
2020/12/05 01:10:07;;;;;;;21.97;10.53;;;;;;;12.32;100.00;101709.31;5010981;28;20485;-73
2020/12/05 01:12:33;;;;;;;23.77;9.93;;;;;;;12.37;100.00;101721.28;5011488;28;20178;-72
2020/12/05 01:15:01;;;;;;;17.70;8.93;;;;;;;12.31;100.00;101715.50;5009571;28;20256;-74
2020/12/05 01:17:32;;;;;;;19.57;9.10;;;;;;;12.38;100.00;101715.06;5010144;28;20651;-77
2020/12/05 01:20:03;;;;;;;17.43;9.53;;;;;;;12.37;100.00;101716.00;5006270;28;20420;-74
2020/12/05 01:22:28;;;;;;;24.47;10.00;;;;;;;12.24;100.00;101720.28;5006435;28;20959;-76
2020/12/05 01:24:54;;;;;;;19.83;8.40;;;;;;;12.34;100.00;101718.84;5011492;28;20428;-74
2020/12/05 01:27:19;;;;;;;19.40;9.73;;;;;;;12.26;100.00;101709.69;5010435;28;20174;-77
2020/12/05 01:29:45;;;;;;;17.50;8.37;;;;;;;12.32;100.00;101715.44;5011300;28;20747;-79
2020/12/05 01:32:11;;;;;;;22.23;9.07;;;;;;;12.24;100.00;101715.03;5010301;28;20170;-72
2020/12/05 01:34:37;;;;;;;17.53;9.87;;;;;;;12.23;100.00;101714.16;5000416;28;20221;-73
2020/12/05 01:37:02;;;;;;;19.87;9.33;;;;;;;12.28;100.00;101713.91;5010951;28;20437;-74
2020/12/05 01:39:28;;;;;;;19.33;9.47;;;;;;;12.30;100.00;101714.66;5011196;28;20217;-79
2020/12/05 01:41:54;;;;;;;24.47;9.40;;;;;;;12.25;100.00;101706.22;5012036;28;20525;-78
2020/12/05 01:44:19;;;;;;;18.00;7.63;;;;;;;12.19;100.00;101711.81;5007743;28;20237;-77
2020/12/05 01:46:47;;;;;;;22.70;8.40;;;;;;;12.21;100.00;101712.56;5003055;28;20257;-80
2020/12/05 01:49:17;;;;;;;16.07;7.80;;;;;;;12.25;100.00;101715.91;5012067;28;20213;-78
2020/12/05 01:51:46;;;;;;;17.50;8.23;;;;;;;12.27;100.00;101724.56;5011584;28;20476;-80
2020/12/05 01:54:12;;;;;;;20.87;8.83;;;;;;;12.22;100.00;101715.13;5011790;28;20938;-76
2020/12/05 01:56:41;;;;;;;20.00;8.10;;;;;;;12.32;100.00;101719.84;5012444;28;20433;-76
2020/12/05 01:59:07;;;;;;;16.70;9.80;;;;;;;12.33;100.00;101722.41;5012220;28;20178;-79
2020/12/05 02:01:34;;;;;;;17.57;7.83;;;;;;;12.31;100.00;101715.50;5011644;28;20428;-75
2020/12/05 02:04:01;;;;;;;18.13;9.03;;;;;;;12.31;100.00;101705.81;5009201;28;20178;-75
2020/12/05 02:06:51;;;;;;;14.33;7.77;;;;;;;12.21;100.00;101716.06;5008894;28;21059;-78
2020/12/05 02:09:30;;;;;;;28.13;8.40;;;;;;;12.23;100.00;101711.53;5011267;28;20483;-80
2020/12/05 02:12:28;;;;;;;15.83;8.00;;;;;;;12.27;100.00;101716.66;5010725;28;20810;-74
2020/12/05 02:15:06;;;;;;;15.73;7.40;;;;;;;12.31;100.00;101720.78;5011274;28;20418;-83
2020/12/05 02:17:36;;;;;;;23.93;7.43;;;;;;;12.26;100.00;101713.16;5014688;28;20483;-75
2020/12/05 02:20:05;;;;;;;18.37;7.93;;;;;;;12.27;100.00;101714.00;5015224;28;20428;-81
2020/12/05 02:22:37;;;;;;;14.90;7.33;;;;;;;12.24;100.00;101717.66;5015991;28;20445;-82
2020/12/05 02:25:04;;;;;;;16.43;7.80;;;;;;;12.21;100.00;101725.75;5015533;28;20421;-79
2020/12/05 02:27:31;;;;;;;17.90;7.17;;;;;;;12.26;100.00;101718.44;5015022;28;20428;-77
2020/12/05 02:29:57;;;;;;;17.47;8.30;;;;;;;12.28;100.00;101716.56;5014943;28;20460;-82
2020/12/05 02:32:22;;;;;;;16.37;7.83;;;;;;;12.21;100.00;101717.84;5022132;28;20424;-82
2020/12/05 02:34:48;;;;;;;19.27;8.13;;;;;;;12.19;100.00;101719.72;5015454;28;21648;-81
2020/12/05 02:37:18;;;;;;;17.93;9.20;;;;;;;12.21;100.00;101715.22;5014824;28;20603;-79
2020/12/05 02:39:44;;;;;;;20.70;7.30;;;;;;;12.15;100.00;101715.56;5014372;28;20178;-80
2020/12/05 02:42:14;;;;;;;14.23;7.40;;;;;;;12.18;100.00;101715.41;5015365;28;20491;-80
2020/12/05 02:44:47;;;;;;;13.97;6.83;;;;;;;12.23;100.00;101718.59;5014653;28;20422;-77
2020/12/05 02:47:12;;;;;;;14.77;7.50;;;;;;;12.20;100.00;101716.16;5015100;28;20421;-83
2020/12/05 02:49:38;;;;;;;15.93;7.60;;;;;;;12.26;100.00;101721.06;5014866;28;20487;-79
2020/12/05 02:52:03;;;;;;;15.67;7.53;;;;;;;12.31;100.00;101723.41;5015168;28;20171;-81
2020/12/05 02:54:31;;;;;;;13.17;6.90;;;;;;;12.30;100.00;101719.09;5015042;28;20217;-78
2020/12/05 02:56:57;;;;;;;16.17;7.27;;;;;;;12.30;100.00;101725.22;5015553;28;20174;-81
2020/12/05 02:59:23;;;;;;;18.53;7.57;;;;;;;12.31;100.00;101719.00;5015284;28;20409;-76
2020/12/05 03:01:48;;;;;;;17.60;7.90;;;;;;;12.28;100.00;101716.56;5014550;28;20418;-75
2020/12/05 03:04:14;;;;;;;11.47;6.17;;;;;;;12.28;100.00;101707.81;5015145;28;20556;-81
2020/12/05 03:06:39;;;;;;;15.90;7.57;;;;;;;12.23;100.00;101711.53;5014724;28;20290;-81
2020/12/05 03:09:05;;;;;;;14.40;5.90;;;;;;;12.26;100.00;101728.97;5014519;28;20178;-78
2020/12/05 03:11:30;;;;;;;14.40;7.20;;;;;;;12.22;100.00;101727.44;5014371;28;20171;-80
2020/12/05 03:13:56;;;;;;;14.47;8.10;;;;;;;12.25;100.00;101735.19;5014562;28;20189;-76
2020/12/05 03:16:21;;;;;;;14.80;7.33;;;;;;;12.27;100.00;101735.94;5015071;28;20170;-78
2020/12/05 03:18:47;;;;;;;16.33;7.80;;;;;;;12.28;100.00;101729.72;5014982;28;20268;-81
2020/12/05 03:21:12;;;;;;;15.17;5.67;;;;;;;12.22;100.00;101732.72;5013746;28;20178;-81
2020/12/05 03:23:45;;;;;;;14.17;6.73;;;;;;;12.21;100.00;101733.66;5014423;28;20214;-74
2020/12/05 03:26:11;;;;;;;15.13;7.07;;;;;;;12.29;100.00;101734.06;5014920;28;20174;-80
2020/12/05 03:28:37;;;;;;;13.50;7.07;;;;;;;12.32;100.00;101727.75;5013378;28;20437;-72
2020/12/05 03:31:02;;;;;;;20.80;7.43;;;;;;;12.30;100.00;101733.13;5013380;28;20226;-82
2020/12/05 03:33:28;;;;;;;13.77;7.20;;;;;;;12.30;100.00;101740.16;5014918;28;20420;-82
2020/12/05 03:35:53;;;;;;;21.63;8.10;;;;;;;12.29;100.00;101743.75;5014578;28;20261;-81
2020/12/05 03:38:19;;;;;;;14.23;6.57;;;;;;;12.27;100.00;101743.84;5014775;28;20202;-80
2020/12/05 03:40:44;;;;;;;20.00;7.63;;;;;;;12.25;100.00;101737.81;5015016;28;20174;-81
2020/12/05 03:43:10;;;;;;;17.90;8.30;;;;;;;12.31;100.00;101747.13;4996569;28;20186;-80
2020/12/05 03:45:35;;;;;;;17.97;8.63;;;;;;;12.26;100.00;101744.78;5014035;28;20178;-81
2020/12/05 03:48:01;;;;;;;17.23;8.80;;;;;;;12.29;100.00;101754.28;5014531;28;20179;-82
2020/12/05 03:50:26;;;;;;;15.37;7.60;;;;;;;12.26;100.00;101755.31;5014179;28;20210;-80
2020/12/05 03:52:52;;;;;;;16.37;7.40;;;;;;;12.21;100.00;101757.38;5013804;28;20181;-82
2020/12/05 03:55:17;;;;;;;20.53;8.37;;;;;;;12.29;100.00;101760.41;5014516;28;20178;-78
2020/12/05 03:57:43;;;;;;;22.63;7.90;;;;;;;12.22;100.00;101762.53;5014506;28;20179;-83
2020/12/05 04:00:08;;;;;;;16.53;7.03;;;;;;;12.25;100.00;101758.91;5014456;28;20182;-82
2020/12/05 04:02:34;;;;;;;12.90;7.60;;;;;;;12.19;100.00;101769.78;5014817;28;20188;-82
2020/12/05 04:04:59;;;;;;;19.13;7.90;;;;;;;12.19;100.00;101769.78;5014162;28;20170;-83
2020/12/05 04:07:25;;;;;;;16.17;7.93;;;;;;;12.20;100.00;101768.84;5013645;28;20205;-83
2020/12/05 04:09:50;;;;;;;24.80;7.90;;;;;;;12.20;100.00;101774.13;5014115;28;20194;-83
2020/12/05 04:12:16;;;;;;;14.80;8.63;;;;;;;12.28;100.00;101771.88;5014114;28;20178;-83
2020/12/05 04:14:41;;;;;;;13.80;6.93;;;;;;;12.25;100.00;101766.81;5014209;28;20173;-81
2020/12/05 04:17:07;;;;;;;13.83;7.07;;;;;;;12.27;100.00;101774.63;5013559;28;20174;-83
2020/12/05 04:19:32;;;;;;;18.47;7.87;;;;;;;12.27;100.00;101767.56;5013805;28;20170;-78
2020/12/05 04:21:58;;;;;;;14.60;6.60;;;;;;;12.21;100.00;101773.16;5013271;28;20178;-74
2020/12/05 04:24:24;;;;;;;14.97;7.57;;;;;;;12.13;100.00;101770.13;5013342;28;20425;-79
2020/12/05 04:26:50;;;;;;;16.43;7.57;;;;;;;12.09;100.00;101772.09;5013241;28;20250;-82
2020/12/05 04:29:15;;;;;;;14.93;7.67;;;;;;;12.08;100.00;101783.53;5013514;28;20425;-82
2020/12/05 04:31:41;;;;;;;23.53;9.40;;;;;;;12.09;100.00;101779.13;5013903;28;20256;-83
2020/12/05 04:34:06;;;;;;;18.47;7.10;;;;;;;12.14;100.00;101785.00;5013447;28;20182;-80
2020/12/05 04:36:32;;;;;;;14.73;7.93;;;;;;;12.20;100.00;101788.13;5013951;28;20194;-83
2020/12/05 04:38:57;;;;;;;14.57;8.20;;;;;;;12.23;100.00;101780.03;5013004;28;20174;-81
2020/12/05 04:41:24;;;;;;;14.60;7.17;;;;;;;12.15;100.00;101786.69;5013425;28;20183;-84
2020/12/05 04:43:50;;;;;;;14.07;7.10;;;;;;;12.20;100.00;101782.88;5013366;28;20174;-83
2020/12/05 04:46:17;;;;;;;13.33;6.97;;;;;;;12.14;100.00;101782.34;5013865;28;20938;-83
2020/12/05 04:48:44;;;;;;;14.53;6.97;;;;;;;12.18;100.00;101787.38;5012915;28;20190;-84
2020/12/05 04:51:17;;;;;;;12.33;7.40;;;;;;;12.15;100.00;101784.06;5013180;28;20476;-77
2020/12/05 04:53:47;;;;;;;17.40;7.20;;;;;;;12.16;100.00;101781.31;5013386;28;20939;-82
2020/12/05 04:56:15;;;;;;;19.40;6.63;;;;;;;12.14;100.00;101787.63;5013537;28;20400;-83
2020/12/05 04:58:47;;;;;;;23.47;7.90;;;;;;;12.08;100.00;101778.28;5013145;28;20402;-82
2020/12/05 05:01:16;;;;;;;16.60;7.40;;;;;;;12.09;100.00;101789.66;5013443;28;20484;-81
2020/12/05 05:03:43;;;;;;;26.20;7.60;;;;;;;12.13;100.00;101799.94;5012653;28;20422;-79
2020/12/05 05:06:18;;;;;;;14.03;8.17;;;;;;;12.15;100.00;101797.22;5012742;28;20975;-74
2020/12/05 05:08:45;;;;;;;21.57;8.33;;;;;;;12.11;100.00;101798.34;5012102;28;20425;-81
2020/12/05 05:11:13;;;;;;;16.53;6.97;;;;;;;12.05;100.00;101809.22;5012827;28;20811;-75
2020/12/05 05:14:04;;;;;;;19.43;7.83;;;;;;;12.11;100.00;101812.38;5012784;28;20406;-84
2020/12/05 05:16:29;;;;;;;14.90;7.03;;;;;;;12.16;100.00;101820.84;5013014;28;20421;-76
2020/12/05 05:18:56;;;;;;;13.57;6.30;;;;;;;12.13;100.00;101826.31;5012393;28;20428;-83
2020/12/05 05:21:39;;;;;;;15.20;6.80;;;;;;;12.22;100.00;101833.69;5012633;28;20175;-81
2020/12/05 05:24:16;;;;;;;11.67;6.50;;;;;;;12.23;100.00;101821.34;5012167;28;20425;-84
2020/12/05 05:26:43;;;;;;;15.97;6.77;;;;;;;12.28;100.00;101823.75;5012845;28;20405;-81
2020/12/05 05:29:31;;;;;;;12.20;6.90;;;;;;;12.18;100.00;101826.91;5012695;28;20397;-81
2020/12/05 05:34:37;;;;;;;12.93;6.67;;;;;;;12.28;100.00;101831.66;5010503;28;20881;-81
2020/12/05 05:37:13;;;;;;;17.40;7.50;;;;;;;12.26;100.00;101828.25;5013175;28;20428;-81
2020/12/05 05:39:44;;;;;;;16.63;7.63;;;;;;;12.23;100.00;101829.25;5013194;28;20632;-83
2020/12/05 05:42:11;;;;;;;12.50;6.00;;;;;;;12.24;100.00;101828.31;5012802;28;20437;-80
2020/12/05 05:44:36;;;;;;;13.03;6.23;;;;;;;12.23;100.00;101834.53;5012395;28;20950;-83
2020/12/05 05:47:03;;;;;;;15.00;7.37;;;;;;;12.22;100.00;101828.41;5012954;28;20421;-82
2020/12/05 05:49:31;;;;;;;14.70;7.10;;;;;;;12.28;100.00;101839.56;5013015;28;20289;-84
2020/12/05 05:52:01;;;;;;;17.90;6.60;;;;;;;12.24;100.00;101841.50;5014861;28;20405;-85
2020/12/05 05:54:35;;;;;;;16.50;6.80;;;;;;;12.29;100.00;101838.63;5015822;28;20480;-83
2020/12/05 05:57:16;;;;;;;16.70;6.73;;;;;;;12.31;100.00;101840.22;5016531;28;20405;-85
2020/12/05 05:59:43;;;;;;;18.20;6.80;;;;;;;12.35;100.00;101849.66;5016669;28;20402;-86
2020/12/05 06:02:13;;;;;;;18.00;8.67;;;;;;;12.41;100.00;101838.78;5016389;28;20779;-85
2020/12/05 06:04:42;;;;;;;11.50;6.60;;;;;;;12.37;100.00;101858.31;5016772;28;20484;-85
2020/12/05 06:07:10;;;;;;;18.43;7.53;;;;;;;12.38;100.00;101846.84;5016078;28;20516;-84
2020/12/05 06:09:52;;;;;;;13.70;7.23;;;;;;;12.31;100.00;101853.41;5015739;28;20445;-81
2020/12/05 06:12:20;;;;;;;14.10;7.77;;;;;;;12.40;100.00;101862.59;5015385;28;20421;-81
2020/12/05 06:14:47;;;;;;;20.67;9.70;;;;;;;12.41;100.00;101862.50;5016367;28;20500;-76
2020/12/05 06:17:13;;;;;;;15.53;7.73;;;;;;;12.43;100.00;101859.78;5015534;28;20401;-82
2020/12/05 06:19:42;;;;;;;15.20;7.93;;;;;;;12.44;100.00;101862.31;5016307;28;20464;-83
2020/12/05 06:22:19;;;;;;;18.73;8.57;;;;;;;12.53;100.00;101862.72;5014766;28;20175;-77
2020/12/05 06:24:53;;;;;;;15.10;7.03;;;;;;;12.57;100.00;101859.84;5015781;28;20475;-76
2020/12/05 06:27:20;;;;;;;17.80;7.50;;;;;;;12.57;100.00;101859.00;5015608;28;20401;-77
2020/12/05 06:29:47;;;;;;;13.60;7.20;;;;;;;12.64;100.00;101855.06;5015884;28;20544;-83
2020/12/05 06:32:38;;;;;;;17.00;6.20;;;;;;;12.60;100.00;101857.03;5014985;28;20413;-79
2020/12/05 06:35:24;;;;;;;17.97;5.93;;;;;;;12.65;100.00;101856.78;5015670;28;20488;-83
2020/12/05 06:37:55;;;;;;;13.33;6.80;;;;;;;12.74;100.00;101856.22;5015494;28;20425;-79
2020/12/05 06:40:21;;;;;;;17.87;7.30;;;;;;;12.82;100.00;101861.91;5015753;28;20410;-75
2020/12/05 06:42:50;;;;;;;17.13;7.23;;;;;;;12.74;100.00;101862.34;5015112;28;20504;-82
2020/12/05 06:45:27;;;;;;;14.93;7.13;;;;;;;12.78;100.00;101866.53;5015172;28;20425;-74
2020/12/05 06:47:54;;;;;;;18.93;7.07;;;;;;;12.84;100.00;101856.53;5015225;28;20440;-84
2020/12/05 06:50:33;;;;;;;23.40;7.97;;;;;;;12.81;100.00;101860.22;5015227;28;20461;-75
2020/12/05 06:52:59;;;;;;;18.03;7.27;;;;;;;12.96;100.00;101863.75;5015492;28;20460;-74
2020/12/05 06:55:33;;;;;;;14.50;7.43;;;;;;;12.88;100.00;101858.91;5015280;28;20449;-84
2020/12/05 06:58:08;;;;;;;13.00;6.43;;;;;;;13.03;100.00;101862.44;5015006;28;20178;-81
2020/12/05 07:00:36;;;;;;;21.37;8.47;;;;;;;13.05;100.00;101868.47;5015291;28;20785;-80
2020/12/05 07:03:04;;;;;;;15.17;7.03;;;;;;;13.10;100.00;101863.78;5014501;28;20505;-77
2020/12/05 07:05:36;;;;;;;20.30;7.90;;;;;;;12.99;100.00;101863.56;5013636;28;20810;-77
2020/12/05 07:08:27;;;;;;;13.07;7.30;;;;;;;12.95;100.00;101862.06;5014913;28;20417;-80
2020/12/05 07:11:00;;;;;;;17.70;6.97;;;;;;;13.02;100.00;101874.78;5014753;28;20449;-75
2020/12/05 07:13:39;;;;;;;14.87;7.20;;;;;;;13.05;100.00;101873.75;5014662;28;20420;-81
2020/12/05 07:16:27;;;;;;;14.80;7.30;;;;;;;13.15;100.00;101860.84;5014288;28;20427;-77
2020/12/05 07:18:57;;;;;;;16.17;7.63;;;;;;;13.10;100.00;101860.31;5015040;28;20944;-78
2020/12/05 07:21:25;;;;;;;16.30;7.33;;;;;;;13.16;100.00;101857.31;5004153;28;20406;-76
2020/12/05 07:23:51;;;;;;;14.97;7.07;;;;;;;13.16;100.00;101852.03;5015211;28;20410;-78
2020/12/05 07:26:17;;;;;;;18.97;7.13;;;;;;;13.32;100.00;101858.13;5018039;28;21014;-79
2020/12/05 07:28:50;;;;;;;17.33;6.60;;;;;;;13.36;100.00;101861.41;5014798;28;20472;-76
2020/12/05 07:31:16;;;;;;;19.80;7.63;;;;;;;13.36;100.00;101864.03;5014635;28;20817;-79
2020/12/05 07:33:43;;;;;;;18.93;8.43;;;;;;;13.41;100.00;101870.75;5014156;28;20409;-77
2020/12/05 07:36:10;;;;;;;15.20;7.33;;;;;;;13.46;100.00;101863.41;5013964;28;20832;-78
2020/12/05 07:38:38;;;;;;;22.20;7.40;;;;;;;13.46;100.00;101867.84;5014583;28;20406;-78
2020/12/05 07:41:12;;;;;;;30.13;7.63;;;;;;;13.35;100.00;101867.63;5014701;28;20413;-79
2020/12/05 07:43:38;;;;;;;14.50;6.43;;;;;;;13.37;100.00;101874.50;5013931;28;20409;-79
2020/12/05 07:46:06;;;;;;;17.00;7.30;;;;;;;13.49;100.00;101886.13;5014685;28;20409;-81
2020/12/05 07:48:32;;;;;;;19.70;7.90;;;;;;;13.62;100.00;101892.38;5013542;28;20421;-78
2020/12/05 07:50:58;;;;;;;14.00;7.27;;;;;;;13.49;100.00;101888.78;5013878;28;20449;-77
2020/12/05 07:53:32;;;;;;;18.57;6.73;;;;;;;13.53;100.00;101883.22;5014117;28;20406;-77
2020/12/05 07:56:09;;;;;;;14.83;6.03;;;;;;;13.56;100.00;101885.66;5013934;28;20260;-78
2020/12/05 07:58:43;;;;;;;21.50;6.50;;;;;;;13.41;100.00;101883.09;5013920;28;20449;-79
2020/12/05 08:01:15;;;;;;;18.10;7.83;;;;;;;13.46;100.00;101891.59;5014218;28;20410;-84
2020/12/05 08:03:58;;;;;;;18.37;7.30;;;;;;;13.34;100.00;101895.81;5013122;28;20495;-77
2020/12/05 08:06:45;;;;;;;18.37;6.97;;;;;;;13.38;100.00;101891.22;5013497;28;20445;-77
2020/12/05 08:09:18;;;;;;;16.70;7.57;;;;;;;13.42;100.00;101893.56;5013794;28;20475;-81
2020/12/05 08:11:51;;;;;;;20.80;7.80;;;;;;;13.36;100.00;101893.94;5013654;28;20416;-81
2020/12/05 08:14:16;;;;;;;15.43;7.40;;;;;;;13.30;100.00;101899.59;5012043;28;20509;-77
2020/12/05 08:16:42;;;;;;;17.20;6.60;;;;;;;13.32;100.00;101903.00;5013303;28;20536;-80
2020/12/05 08:19:08;;;;;;;11.83;6.43;;;;;;;13.39;100.00;101901.69;5013117;28;20974;-77
2020/12/05 08:21:35;;;;;;;21.80;8.47;;;;;;;13.49;100.00;101910.75;5012752;28;20425;-79
2020/12/05 08:24:09;;;;;;;19.33;8.60;;;;;;;13.35;100.00;101916.00;5013216;28;20730;-78
2020/12/05 08:26:36;;;;;;;17.57;8.40;;;;;;;13.40;100.00;101915.72;5012834;28;20420;-79
2020/12/05 08:29:04;;;;;;;22.30;7.57;;;;;;;13.45;100.00;101917.16;5013035;28;20414;-76
2020/12/05 08:31:30;;;;;;;15.73;6.87;;;;;;;13.56;100.00;101912.06;5013142;28;20491;-77
2020/12/05 08:33:55;;;;;;;14.87;6.37;;;;;;;13.64;100.00;101913.41;5013513;28;20826;-79
2020/12/05 08:36:31;;;;;;;12.80;5.43;;;;;;;13.55;100.00;101920.09;5012732;28;20560;-79
2020/12/05 08:39:03;;;;;;;18.43;7.00;;;;;;;13.60;100.00;101916.25;5013106;28;20166;-78
2020/12/05 08:41:29;;;;;;;15.13;7.17;;;;;;;13.62;100.00;101912.66;5012754;28;20440;-76
2020/12/05 08:43:55;;;;;;;25.07;7.83;;;;;;;13.51;100.00;101910.63;5013370;28;20843;-78
2020/12/05 08:46:23;;;;;;;27.97;10.17;;;;;;;13.67;100.00;101913.19;5013178;28;20428;-80
2020/12/05 08:48:50;;;;;;;18.27;7.87;;;;;;;13.78;100.00;101918.69;4995062;28;20901;-78
2020/12/05 08:51:26;;;;;;;12.00;6.47;;;;;;;13.82;100.00;101914.91;5011878;28;20471;-78
2020/12/05 08:54:04;;;;;;;15.57;6.90;;;;;;;13.78;100.00;101911.63;5013090;28;20463;-79
2020/12/05 08:56:30;;;;;;;20.80;7.33;;;;;;;13.74;100.00;101910.09;5012719;28;20442;-79
2020/12/05 08:58:55;;;;;;;15.37;7.40;;;;;;;13.77;100.00;101909.06;4995417;28;20481;-78
2020/12/05 09:01:21;;;;;;;17.50;7.70;;;;;;;13.77;100.00;101906.44;5012117;28;20178;-77
2020/12/05 09:03:46;;;;;;;16.07;5.90;;;;;;;13.73;100.00;101916.31;5011889;28;20634;-78
2020/12/05 09:06:11;;;;;;;17.50;7.47;;;;;;;13.78;100.00;101913.41;5013042;28;20186;-80
2020/12/05 09:08:44;;;;;;;13.20;6.37;;;;;;;13.65;100.00;101909.81;5012738;28;20272;-77
2020/12/05 09:11:24;;;;;;;33.57;8.63;;;;;;;13.82;100.00;101907.81;5012116;28;20577;-81
2020/12/05 09:13:51;;;;;;;22.00;7.67;;;;;;;13.92;100.00;101894.91;5011661;28;20421;-81
2020/12/05 09:16:16;;;;;;;14.10;6.03;;;;;;;13.94;100.00;101897.47;5012668;28;20412;-80
2020/12/05 09:18:44;;;;;;;19.97;7.17;;;;;;;13.79;100.00;101905.38;5012113;28;20410;-79
2020/12/05 09:21:22;;;;;;;16.77;7.00;;;;;;;13.85;100.00;101897.09;5012390;28;20567;-75
2020/12/05 09:24:02;;;;;;;15.40;6.87;;;;;;;13.92;100.00;101908.13;5012456;28;20413;-79
2020/12/05 09:26:28;;;;;;;11.40;5.70;;;;;;;13.86;100.00;101905.84;5012850;28;20782;-79
2020/12/05 09:28:54;;;;;;;13.60;6.37;;;;;;;13.82;100.00;101897.25;4993673;28;20421;-78
2020/12/05 09:31:20;;;;;;;19.97;7.93;;;;;;;13.85;100.00;101905.00;5012485;28;20201;-79
2020/12/05 09:33:46;;;;;;;21.30;7.77;;;;;;;13.71;100.00;101901.53;5012187;28;20421;-79
2020/12/05 09:36:11;;;;;;;14.07;8.00;;;;;;;13.38;100.00;101901.78;5022693;28;20225;-79
2020/12/05 09:38:37;;;;;;;16.60;6.03;;;;;;;13.54;100.00;101906.03;5012465;28;20424;-78
2020/12/05 09:41:04;;;;;;;15.27;6.50;;;;;;;13.48;100.00;101903.75;5012363;28;20538;-80
2020/12/05 09:43:29;;;;;;;12.63;5.67;;;;;;;13.54;100.00;101907.84;5012433;28;20174;-79
2020/12/05 09:45:55;;;;;;;25.73;6.90;;;;;;;13.59;100.00;101897.81;4998748;28;20428;-78
2020/12/05 09:48:20;;;;;;;12.00;6.40;;;;;;;13.59;100.00;101901.31;5011747;28;20209;-79
2020/12/05 09:50:47;;;;;;;13.23;5.83;;;;;;;13.61;100.00;101895.97;5012136;28;20232;-78
2020/12/05 09:53:13;;;;;;;16.37;6.10;;;;;;;13.42;100.00;101900.63;5011992;28;20206;-78
2020/12/05 09:55:39;;;;;;;21.03;7.00;;;;;;;13.56;100.00;101903.31;5011740;28;20429;-78
2020/12/05 09:58:04;;;;;;;20.87;6.43;;;;;;;13.66;100.00;101898.28;5011886;28;20460;-78
2020/12/05 10:00:30;;;;;;;14.90;6.60;;;;;;;13.74;100.00;101904.81;5011974;28;20244;-75
2020/12/05 10:02:56;;;;;;;15.13;6.43;;;;;;;13.90;100.00;101896.78;5012333;28;20669;-77
2020/12/05 10:05:22;;;;;;;17.40;5.97;;;;;;;13.91;100.00;101900.31;5011745;28;20425;-76
2020/12/05 10:07:47;;;;;;;19.17;6.30;;;;;;;13.83;100.00;101896.34;5011168;28;20265;-79
2020/12/05 10:10:13;;;;;;;14.27;6.87;;;;;;;13.91;100.00;101901.16;5011091;28;20202;-78
2020/12/05 10:12:44;;;;;;;25.77;6.93;;;;;;;13.68;100.00;101891.13;5011880;28;20262;-78
2020/12/05 10:15:11;;;;;;;16.43;6.87;;;;;;;13.83;100.00;101898.13;5011567;28;20191;-79
2020/12/05 10:17:36;;;;;;;13.30;6.13;;;;;;;13.80;100.00;101896.50;5011911;28;20459;-77
2020/12/05 10:20:04;;;;;;;17.13;5.47;;;;;;;13.92;100.00;101894.06;5011464;28;20409;-77
2020/12/05 10:22:30;;;;;;;22.53;8.63;;;;;;;13.98;100.00;101889.25;4998202;28;20732;-76
2020/12/05 10:24:55;;;;;;;14.97;6.80;;;;;;;13.99;100.00;101890.09;5012065;28;20443;-76
2020/12/05 10:27:21;;;;;;;19.33;7.00;;;;;;;13.86;100.00;101896.13;5011739;28;20641;-75
2020/12/05 10:29:46;;;;;;;16.47;6.90;;;;;;;13.86;100.00;101890.00;5018498;28;20237;-79
2020/12/05 10:32:12;;;;;;;15.10;8.63;;;;;;;13.92;100.00;101899.34;5011250;28;20186;-77
2020/12/05 10:34:38;;;;;;;21.83;6.40;;;;;;;14.12;100.00;101891.84;5011734;28;20214;-75
2020/12/05 10:37:03;;;;;;;11.97;5.83;;;;;;;14.09;100.00;101888.56;5012272;28;20549;-78
2020/12/05 10:39:30;;;;;;;19.00;7.10;;;;;;;14.07;100.00;101890.47;5015122;28;20417;-79
2020/12/05 10:41:56;;;;;;;15.27;6.77;;;;;;;14.10;100.00;101888.47;5015602;28;20189;-79
2020/12/05 10:44:22;;;;;;;19.10;6.77;;;;;;;13.95;100.00;101889.44;5015168;28;20501;-76
2020/12/05 10:46:48;;;;;;;15.23;6.30;;;;;;;13.88;100.00;101877.53;5014928;28;20174;-80
2020/12/05 10:49:15;;;;;;;12.37;6.33;;;;;;;13.95;100.00;101883.28;5014571;28;20174;-80
2020/12/05 10:51:41;;;;;;;14.67;6.23;;;;;;;14.01;100.00;101885.56;5015390;28;20455;-82
2020/12/05 10:54:07;;;;;;;23.73;7.60;;;;;;;13.82;100.00;101880.56;5015187;28;20414;-81
2020/12/05 10:56:33;;;;;;;12.87;6.43;;;;;;;13.93;100.00;101880.75;5006516;28;20205;-77
2020/12/05 10:58:59;;;;;;;11.73;5.07;;;;;;;13.92;100.00;101880.84;5015119;28;20174;-78
2020/12/05 11:01:24;;;;;;;13.87;5.30;;;;;;;13.99;100.00;101872.44;5014543;28;20746;-79
2020/12/05 11:03:50;;;;;;;12.00;5.47;;;;;;;14.02;100.00;101877.53;5014191;28;20201;-80
2020/12/05 11:06:24;;;;;;;15.60;7.47;;;;;;;14.05;100.00;101881.75;5013840;28;20277;-76
2020/12/05 11:08:50;;;;;;;15.00;7.20;;;;;;;13.90;100.00;101883.56;5014236;28;20189;-76
2020/12/05 11:11:16;;;;;;;14.27;5.67;;;;;;;13.89;100.00;101881.88;5014218;28;20899;-77
2020/12/05 11:13:42;;;;;;;16.10;7.00;;;;;;;13.93;100.00;101885.19;5014437;28;20412;-79
2020/12/05 11:16:08;;;;;;;18.13;6.00;;;;;;;13.98;100.00;101883.97;5004142;28;20429;-79
2020/12/05 11:18:34;;;;;;;12.80;6.20;;;;;;;13.93;100.00;101875.47;5009478;28;20409;-75